createdAt,value
2022-10-21T00:02:21.012Z,92.98
2022-10-21T00:04:48.681Z,93.25
2022-10-21T00:07:16.325Z,93.23
2022-10-21T00:09:44.051Z,93.59
2022-10-21T00:12:13.117Z,93.18
2022-10-21T00:14:40.825Z,93.34
2022-10-21T00:17:08.525Z,94.15
2022-10-21T00:19:36.173Z,94.24
2022-10-21T00:22:03.814Z,94.89
2022-10-21T00:24:31.454Z,93.52
2022-10-21T00:26:59.087Z,94.02
2022-10-21T00:29:28.064Z,93.06
2022-10-21T00:31:55.919Z,92.75
2022-10-21T00:34:28.483Z,92.73
2022-10-21T00:36:58.535Z,93.67
2022-10-21T00:39:26.244Z,93.23
2022-10-21T00:41:53.953Z,92.36
2022-10-21T00:44:21.803Z,92.63
2022-10-21T00:46:55.449Z,91.74
2022-10-21T00:49:32.364Z,92.45
2022-10-21T00:52:03.102Z,92.07
2022-10-21T00:54:32.317Z,92.27
2022-10-21T00:57:00.828Z,92.86
2022-10-21T00:59:32.696Z,93.03
2022-10-21T01:02:01.796Z,92.29
2022-10-21T01:04:29.676Z,92.83
2022-10-21T01:06:58.184Z,93.07
2022-10-21T01:09:26.397Z,93.25
2022-10-21T01:11:54.837Z,93.85
2022-10-21T01:14:49.015Z,92.97
2022-10-21T01:17:44.589Z,93.03
2022-10-21T01:20:33.276Z,92.93
2022-10-21T01:23:38.471Z,93.04
2022-10-21T01:26:37.052Z,93.82
2022-10-21T01:29:36.345Z,93.03
2022-10-21T01:32:15.216Z,92.87
2022-10-21T01:34:48.356Z,93.05
2022-10-21T01:37:23.402Z,93.02
2022-10-21T01:39:56.028Z,93.95
2022-10-21T01:42:32.947Z,94.10
2022-10-21T01:45:06.129Z,92.40
2022-10-21T01:47:38.786Z,92.03
2022-10-21T01:50:11.512Z,91.71
2022-10-21T01:52:42.495Z,92.11
2022-10-21T01:55:14.892Z,92.14
2022-10-21T01:57:47.607Z,92.70
2022-10-21T02:00:15.528Z,92.50
2022-10-21T02:02:48.960Z,92.43
2022-10-21T02:05:20.849Z,92.11
2022-10-21T02:07:49.132Z,92.19
2022-10-21T02:10:18.536Z,92.31
2022-10-21T02:12:49.282Z,92.62
2022-10-21T02:15:19.007Z,92.45
2022-10-21T02:17:56.263Z,92.95
2022-10-21T02:20:28.243Z,92.62
2022-10-21T02:22:56.217Z,92.64
2022-10-21T02:25:29.263Z,91.94
2022-10-21T02:27:57.610Z,91.55
2022-10-21T02:30:25.621Z,91.88
2022-10-21T02:33:00.925Z,91.94
2022-10-21T02:35:35.294Z,92.48
2022-10-21T02:38:11.227Z,92.36
2022-10-21T02:40:43.666Z,92.50
2022-10-21T02:43:15.882Z,92.67
2022-10-21T02:45:43.637Z,92.26
2022-10-21T02:48:12.739Z,92.64
2022-10-21T02:50:40.611Z,91.94
2022-10-21T02:53:09.592Z,92.12
2022-10-21T02:55:37.367Z,92.49
2022-10-21T02:58:05.120Z,93.36
2022-10-21T03:00:33.176Z,93.22
2022-10-21T03:03:01.273Z,92.17
2022-10-21T03:07:57.933Z,92.38
2022-10-21T03:10:25.696Z,93.21
2022-10-21T03:12:53.686Z,92.31
2022-10-21T03:15:21.393Z,94.04
2022-10-21T03:17:49.110Z,94.98
2022-10-21T03:20:17.355Z,95.17
2022-10-21T03:22:46.460Z,95.11
2022-10-21T03:25:14.538Z,92.91
2022-10-21T03:27:42.317Z,93.60
2022-10-21T03:30:11.508Z,92.24
2022-10-21T03:32:39.359Z,92.43
2022-10-21T03:35:08.486Z,90.75
2022-10-21T03:37:36.207Z,90.28
2022-10-21T03:40:09.950Z,90.93
2022-10-21T03:42:40.500Z,91.00
2022-10-21T03:45:09.694Z,90.45
2022-10-21T03:47:37.493Z,90.98
2022-10-21T03:50:08.888Z,91.14
2022-10-21T03:52:40.605Z,91.23
2022-10-21T03:55:10.801Z,91.36
2022-10-21T03:57:39.025Z,92.13
2022-10-21T04:00:08.319Z,92.11
2022-10-21T04:02:36.317Z,92.38
2022-10-21T04:05:04.640Z,92.69
2022-10-21T04:07:32.447Z,92.64
2022-10-21T04:10:00.097Z,92.70
2022-10-21T04:12:29.049Z,92.63
2022-10-21T04:14:56.854Z,92.56
2022-10-21T04:17:24.877Z,92.73
2022-10-21T04:19:52.581Z,92.62
2022-10-21T04:22:20.299Z,92.46
2022-10-21T04:24:47.969Z,92.63
2022-10-21T04:27:15.906Z,92.35
2022-10-21T04:29:45.167Z,93.09
2022-10-21T04:32:12.834Z,94.63
2022-10-21T04:34:40.517Z,94.77
2022-10-21T04:37:08.241Z,94.06
2022-10-21T04:39:35.967Z,93.54
2022-10-21T04:42:03.814Z,93.93
2022-10-21T04:44:31.694Z,93.86
2022-10-21T04:47:00.956Z,93.67
2022-10-21T04:49:28.626Z,93.48
2022-10-21T04:51:56.442Z,93.35
2022-10-21T04:54:24.266Z,92.97
2022-10-21T04:56:52.011Z,93.27
2022-10-21T04:59:19.929Z,92.74
2022-10-21T05:01:47.574Z,92.76
2022-10-21T05:04:16.570Z,93.41
2022-10-21T05:06:44.276Z,92.79
2022-10-21T05:09:11.984Z,93.63
2022-10-21T05:11:39.712Z,93.32
2022-10-21T05:14:07.456Z,93.10
2022-10-21T05:16:35.359Z,94.46
2022-10-21T05:19:03.022Z,93.45
2022-10-21T05:21:32.071Z,94.62
2022-10-21T05:23:59.773Z,92.68
2022-10-21T05:26:29.058Z,93.26
2022-10-21T05:28:56.754Z,92.96
2022-10-21T05:31:24.624Z,94.29
2022-10-21T05:33:52.403Z,93.48
2022-10-21T05:36:21.899Z,93.65
2022-10-21T05:38:53.854Z,92.82
2022-10-21T05:41:21.929Z,94.09
2022-10-21T05:43:49.624Z,94.93
2022-10-21T05:46:17.542Z,93.44
2022-10-21T05:48:45.274Z,93.31
2022-10-21T05:51:13.101Z,93.55
2022-10-21T05:53:40.800Z,94.13
2022-10-21T05:56:10.047Z,93.64
2022-10-21T05:58:37.799Z,93.42
2022-10-21T06:01:05.558Z,92.98
2022-10-21T06:03:35.024Z,94.55
2022-10-21T06:06:04.465Z,92.72
2022-10-21T06:08:34.109Z,93.87
2022-10-21T06:11:02.016Z,93.44
2022-10-21T06:13:31.624Z,92.74
2022-10-21T06:15:59.461Z,93.28
2022-10-21T06:18:27.624Z,92.41
2022-10-21T06:20:55.355Z,92.50
2022-10-21T06:23:23.136Z,92.97
2022-10-21T06:25:58.906Z,93.15
2022-10-21T06:28:28.342Z,92.08
2022-10-21T06:30:57.713Z,92.25
2022-10-21T06:33:27.185Z,92.76
2022-10-21T06:35:55.774Z,93.45
2022-10-21T06:38:23.856Z,92.74
2022-10-21T06:40:51.649Z,93.18
2022-10-21T06:43:19.576Z,92.40
2022-10-21T06:45:47.311Z,91.73
2022-10-21T06:48:16.504Z,93.10
2022-10-21T06:50:44.245Z,92.94
2022-10-21T06:53:12.087Z,91.57
2022-10-21T06:55:39.832Z,92.03
2022-10-21T06:58:07.571Z,92.20
2022-10-21T07:00:35.403Z,93.47
2022-10-21T07:03:03.217Z,92.20
2022-10-21T07:05:32.295Z,92.88
2022-10-21T07:07:59.980Z,92.32
2022-10-21T07:10:27.831Z,90.83
2022-10-21T07:12:55.500Z,91.84
2022-10-21T07:15:23.212Z,90.90
2022-10-21T07:17:50.974Z,92.30
2022-10-21T07:20:18.662Z,93.00
2022-10-21T07:22:48.562Z,92.08
2022-10-21T07:25:16.444Z,92.80
2022-10-21T07:27:47.379Z,91.68
2022-10-21T07:30:16.265Z,91.06
2022-10-21T07:32:44.208Z,92.23
2022-10-21T07:35:12.010Z,91.88
2022-10-21T07:37:40.149Z,91.53
2022-10-21T07:40:12.163Z,91.14
2022-10-21T07:42:39.973Z,91.14
2022-10-21T07:45:08.136Z,92.13
2022-10-21T07:47:35.996Z,92.10
2022-10-21T07:50:05.149Z,91.20
2022-10-21T07:52:35.130Z,91.27
2022-10-21T07:55:07.160Z,91.80
2022-10-21T07:57:36.181Z,91.50
2022-10-21T08:00:05.090Z,89.85
2022-10-21T08:02:32.868Z,89.74
2022-10-21T08:05:00.670Z,89.50
2022-10-21T08:07:29.404Z,89.35
2022-10-21T08:09:57.613Z,89.91
2022-10-21T08:12:25.306Z,90.66
2022-10-21T08:14:54.348Z,90.25
2022-10-21T08:17:22.048Z,91.55
2022-10-21T08:19:49.910Z,91.60
2022-10-21T08:22:17.718Z,91.96
2022-10-21T08:24:45.379Z,92.95
2022-10-21T08:27:13.164Z,91.46
2022-10-21T08:29:40.904Z,91.47
2022-10-21T08:32:10.047Z,91.56
2022-10-21T08:34:38.316Z,91.06
2022-10-21T08:37:06.046Z,90.36
2022-10-21T08:39:33.749Z,91.12
2022-10-21T08:42:09.820Z,91.23
2022-10-21T08:44:44.512Z,90.00
2022-10-21T08:47:23.335Z,90.07
2022-10-21T08:49:57.274Z,90.24
2022-10-21T08:52:32.105Z,91.12
2022-10-21T08:55:02.829Z,89.46
2022-10-21T08:57:34.515Z,88.51
2022-10-21T09:00:03.587Z,89.84
2022-10-21T09:02:49.404Z,90.59
2022-10-21T09:05:29.660Z,91.40
2022-10-21T09:08:12.494Z,91.65
2022-10-21T09:10:52.919Z,91.54
2022-10-21T09:13:31.266Z,91.01
2022-10-21T09:16:11.860Z,89.66
2022-10-21T09:18:58.052Z,90.22
2022-10-21T09:21:40.274Z,90.02
2022-10-21T09:24:11.430Z,90.99
2022-10-21T09:26:42.474Z,91.29
2022-10-21T09:29:26.800Z,91.64
2022-10-21T09:32:02.126Z,91.10
2022-10-21T09:34:46.323Z,90.79
2022-10-21T09:37:23.982Z,91.13
2022-10-21T09:40:00.869Z,91.43
2022-10-21T09:42:46.235Z,90.76
2022-10-21T09:45:25.135Z,89.99
2022-10-21T09:47:58.097Z,90.95
2022-10-21T09:50:28.841Z,89.61
2022-10-21T09:53:07.472Z,90.53
2022-10-21T09:55:35.339Z,90.09
2022-10-21T09:58:05.106Z,90.38
2022-10-21T10:00:45.279Z,89.25
2022-10-21T10:03:13.992Z,88.89
2022-10-21T10:05:48.225Z,88.99
2022-10-21T10:08:41.266Z,89.05
2022-10-21T10:11:17.060Z,88.79
2022-10-21T10:13:46.772Z,88.99
2022-10-21T10:16:18.102Z,89.42
2022-10-21T10:18:46.871Z,90.32
2022-10-21T10:21:17.664Z,89.84
2022-10-21T10:23:48.755Z,90.24
2022-10-21T10:26:23.059Z,89.14
2022-10-21T10:28:54.281Z,89.67
2022-10-21T10:31:28.537Z,90.04
2022-10-21T10:34:04.784Z,88.56
2022-10-21T10:36:37.321Z,86.86
2022-10-21T10:39:08.421Z,86.62
2022-10-21T10:41:40.388Z,86.20
2022-10-21T10:44:20.675Z,86.54
2022-10-21T10:46:55.416Z,85.63
2022-10-21T10:49:24.118Z,85.80
2022-10-21T10:52:09.013Z,85.32
2022-10-21T10:54:37.850Z,85.15
2022-10-21T10:57:11.752Z,84.25
2022-10-21T10:59:43.183Z,84.84
2022-10-21T11:02:27.211Z,83.21
2022-10-21T11:05:17.297Z,80.16
2022-10-21T11:07:49.599Z,78.39
2022-10-21T11:10:36.308Z,78.45
2022-10-21T11:13:06.422Z,78.35
2022-10-21T11:16:02.132Z,80.96
2022-10-21T11:18:35.953Z,81.71
2022-10-21T11:21:12.045Z,81.56
2022-10-21T11:24:07.577Z,80.13
2022-10-21T11:26:46.170Z,80.46
2022-10-21T11:29:29.236Z,77.84
2022-10-21T11:32:11.491Z,77.15
2022-10-21T11:34:51.410Z,77.28
2022-10-21T11:37:28.896Z,77.50
2022-10-21T11:40:10.377Z,73.95
2022-10-21T11:42:42.734Z,70.54
2022-10-21T11:45:29.743Z,71.33
2022-10-21T11:48:04.914Z,71.75
2022-10-21T11:50:40.501Z,72.84
2022-10-21T11:53:23.445Z,73.04
2022-10-21T11:56:01.037Z,69.52
2022-10-21T11:58:47.668Z,72.19
2022-10-21T12:01:29.748Z,74.65
2022-10-21T12:04:38.077Z,74.68
2022-10-21T12:07:18.836Z,74.11
2022-10-21T12:09:51.682Z,72.42
2022-10-21T12:12:26.774Z,70.16
2022-10-21T12:14:58.790Z,69.23
2022-10-21T12:17:27.343Z,69.63
2022-10-21T12:19:58.824Z,67.74
2022-10-21T12:22:29.198Z,67.08
2022-10-21T12:25:08.178Z,68.26
2022-10-21T12:27:45.895Z,68.10
2022-10-21T12:30:18.333Z,67.86
2022-10-21T12:32:57.991Z,70.92
2022-10-21T12:35:28.451Z,70.58
2022-10-21T12:38:20.323Z,71.36
2022-10-21T12:40:49.416Z,69.41
2022-10-21T12:43:24.701Z,66.76
2022-10-21T12:46:08.740Z,66.41
2022-10-21T12:48:40.487Z,67.49
2022-10-21T12:51:19.752Z,66.54
2022-10-21T12:56:33.282Z,60.30
2022-10-21T12:59:05.703Z,59.33
2022-10-21T13:01:43.405Z,58.79
2022-10-21T13:04:46.590Z,57.73
2022-10-21T13:07:39.089Z,57.75
2022-10-21T13:10:23.877Z,58.42
2022-10-21T13:13:11.599Z,62.85
2022-10-21T13:15:48.774Z,62.61
2022-10-21T13:18:50.355Z,67.45
2022-10-21T13:21:31.342Z,68.71
2022-10-21T13:24:06.364Z,68.71
2022-10-21T13:26:34.193Z,69.14
2022-10-21T13:29:16.468Z,67.11
2022-10-21T13:31:45.955Z,66.70
2022-10-21T13:34:29.163Z,67.82
2022-10-21T13:36:57.756Z,67.03
2022-10-21T13:39:31.089Z,66.84
2022-10-21T13:42:04.835Z,67.68
2022-10-21T13:44:36.931Z,67.01
2022-10-21T13:51:20.747Z,66.14
2022-10-21T13:53:49.601Z,67.30
2022-10-21T13:56:22.737Z,66.02
2022-10-21T13:58:51.306Z,66.94
2022-10-21T14:01:21.816Z,66.81
2022-10-21T14:03:50.279Z,68.47
2022-10-21T14:06:29.076Z,69.05
2022-10-21T14:08:57.224Z,70.08
2022-10-21T14:11:28.595Z,71.21
2022-10-21T14:14:00.345Z,72.61
2022-10-21T14:16:34.784Z,72.57
2022-10-21T14:19:06.521Z,71.71
2022-10-21T14:21:39.121Z,72.03
2022-10-21T14:24:07.796Z,74.37
2022-10-21T14:26:36.321Z,76.18
2022-10-21T14:29:06.141Z,77.46
2022-10-21T14:31:34.087Z,76.95
2022-10-21T14:34:01.757Z,77.53
2022-10-21T14:36:31.828Z,77.58
2022-10-21T14:39:05.572Z,78.74
2022-10-21T14:41:37.270Z,78.34
2022-10-21T14:44:15.277Z,78.68
2022-10-21T14:46:44.847Z,78.84
2022-10-21T14:49:23.610Z,78.01
2022-10-21T14:51:57.326Z,78.00
2022-10-21T14:54:34.815Z,77.99
2022-10-21T14:57:04.432Z,77.80
2022-10-21T14:59:38.087Z,78.21
2022-10-21T15:02:19.674Z,78.31
2022-10-21T15:04:53.052Z,78.15
2022-10-21T15:07:29.793Z,79.45
2022-10-21T15:10:09.494Z,79.74
2022-10-21T15:12:41.713Z,79.97
2022-10-21T15:15:44.978Z,81.30
2022-10-21T15:18:19.499Z,81.18
2022-10-21T15:20:56.128Z,81.59
2022-10-21T15:23:28.060Z,81.78
2022-10-21T15:26:00.837Z,81.58
2022-10-21T15:28:31.928Z,82.34
2022-10-21T15:31:00.609Z,81.86
2022-10-21T15:33:28.344Z,82.59
2022-10-21T15:36:03.674Z,82.81
2022-10-21T15:38:31.499Z,82.66
2022-10-21T15:41:00.505Z,83.06
2022-10-21T15:43:28.280Z,82.87
2022-10-21T15:45:55.929Z,82.81
2022-10-21T15:48:24.168Z,82.20
2022-10-21T15:50:51.741Z,82.16
2022-10-21T15:53:19.356Z,81.91
2022-10-21T15:55:47.208Z,81.45
2022-10-21T15:58:16.370Z,81.67
2022-10-21T16:00:44.059Z,82.12
2022-10-21T16:03:11.744Z,82.69
2022-10-21T16:05:39.875Z,82.86
2022-10-21T16:08:07.525Z,83.41
2022-10-21T16:10:37.241Z,83.83
2022-10-21T16:13:05.240Z,83.84
2022-10-21T16:15:34.991Z,83.42
2022-10-21T16:18:02.658Z,82.90
2022-10-21T16:20:31.798Z,82.33
2022-10-21T16:23:02.959Z,82.37
2022-10-21T16:25:31.077Z,82.17
2022-10-21T16:27:58.815Z,81.94
2022-10-21T16:30:29.400Z,81.73
2022-10-21T16:32:58.394Z,81.66
2022-10-21T16:35:26.409Z,82.10
2022-10-21T16:37:55.576Z,82.36
2022-10-21T16:40:25.555Z,82.16
2022-10-21T16:42:54.224Z,82.22
2022-10-21T16:45:24.739Z,81.95
2022-10-21T16:47:56.620Z,82.12
2022-10-21T16:50:34.411Z,82.07
2022-10-21T16:53:04.136Z,83.50
2022-10-21T16:55:31.777Z,82.25
2022-10-21T16:57:59.489Z,82.78
2022-10-21T17:00:27.080Z,83.01
2022-10-21T17:02:54.667Z,83.41
2022-10-21T17:05:22.432Z,82.95
2022-10-21T17:07:51.618Z,82.93
2022-10-21T17:10:19.614Z,83.26
2022-10-21T17:12:47.300Z,83.95
2022-10-21T17:15:17.692Z,83.50
2022-10-21T17:17:45.354Z,83.36
2022-10-21T17:20:13.076Z,84.06
2022-10-21T17:22:40.806Z,84.69
2022-10-21T17:25:11.768Z,84.98
2022-10-21T17:27:39.833Z,85.31
2022-10-21T17:30:08.611Z,84.94
2022-10-21T17:32:36.250Z,84.68
2022-10-21T17:35:03.962Z,84.66
2022-10-21T17:37:31.639Z,84.19
2022-10-21T17:39:59.266Z,83.91
2022-10-21T17:42:28.305Z,83.85
2022-10-21T17:44:57.204Z,83.71
2022-10-21T17:47:25.055Z,83.73
2022-10-21T17:49:53.006Z,83.55
2022-10-21T17:52:21.009Z,84.21
2022-10-21T17:54:48.750Z,83.71
2022-10-21T17:57:16.534Z,84.59
2022-10-21T17:59:45.756Z,84.47
2022-10-21T18:02:13.666Z,85.22
2022-10-21T18:04:43.413Z,84.80
2022-10-21T18:07:12.345Z,84.98
2022-10-21T18:09:42.342Z,85.74
2022-10-21T18:12:11.110Z,85.63
2022-10-21T18:14:38.734Z,85.26
2022-10-21T18:17:08.422Z,85.18
2022-10-21T18:19:36.302Z,84.86
2022-10-21T18:22:04.094Z,84.80
2022-10-21T18:24:32.295Z,84.75
2022-10-21T18:27:02.672Z,85.05
2022-10-21T18:29:33.408Z,85.08
2022-10-21T18:32:13.785Z,85.07
2022-10-21T18:34:44.493Z,84.63
2022-10-21T18:37:12.387Z,84.82
2022-10-21T18:39:40.565Z,85.24
2022-10-21T18:42:08.331Z,84.92
2022-10-21T18:44:39.085Z,84.85
2022-10-21T18:47:09.946Z,84.19
2022-10-21T18:49:37.810Z,85.26
2022-10-21T18:52:07.507Z,84.67
2022-10-21T18:54:35.657Z,85.62
2022-10-21T18:57:06.624Z,86.49
2022-10-21T18:59:34.580Z,87.23
2022-10-21T19:02:05.882Z,85.82
2022-10-21T19:04:33.697Z,85.32
2022-10-21T19:07:01.813Z,87.08
2022-10-21T19:09:31.213Z,86.62
2022-10-21T19:12:02.983Z,86.93
2022-10-21T19:14:35.359Z,86.83
2022-10-21T19:17:03.629Z,86.17
2022-10-21T19:19:34.776Z,86.25
2022-10-21T19:22:05.282Z,86.14
2022-10-21T19:24:35.983Z,85.59
2022-10-21T19:27:04.143Z,86.69
2022-10-21T19:29:34.081Z,85.58
2022-10-21T19:35:04.802Z,84.81
2022-10-21T19:38:11.412Z,85.34
2022-10-21T19:42:04.483Z,85.72
2022-10-21T20:31:16.795Z,86.88
2022-10-21T20:33:46.292Z,85.38
2022-10-21T20:36:16.630Z,84.27
2022-10-21T20:38:44.859Z,84.94
2022-10-21T20:41:14.815Z,86.50
2022-10-21T20:43:43.708Z,86.79
2022-10-21T20:46:13.730Z,85.98
2022-10-21T20:48:44.847Z,85.77
2022-10-21T20:51:14.287Z,85.53
2022-10-21T20:53:45.324Z,84.99
2022-10-21T20:56:13.017Z,85.49
2022-10-21T20:58:42.197Z,85.36
2022-10-21T21:01:11.332Z,85.86
2022-10-21T21:03:40.835Z,85.23
2022-10-21T21:06:10.344Z,84.84
2022-10-21T21:08:48.610Z,84.99
2022-10-21T21:11:21.949Z,84.83
2022-10-21T21:13:49.698Z,84.19
2022-10-21T21:16:19.637Z,85.73
2022-10-21T21:18:53.438Z,85.32
2022-10-21T21:21:23.978Z,86.27
2022-10-21T21:23:51.766Z,85.03
2022-10-21T21:26:21.475Z,85.95
2022-10-21T21:28:51.852Z,85.50
2022-10-21T21:31:21.401Z,86.59
2022-10-21T21:33:49.123Z,86.71
2022-10-21T21:36:18.658Z,86.07
2022-10-21T21:38:47.878Z,87.04
2022-10-21T21:41:16.573Z,87.82
2022-10-21T21:43:46.076Z,88.54
2022-10-21T21:46:13.725Z,87.14
2022-10-21T21:48:44.459Z,88.74
2022-10-21T21:51:15.535Z,86.67
2022-10-21T21:53:43.199Z,85.93
2022-10-21T21:56:13.427Z,86.33
2022-10-21T21:58:41.186Z,86.49
2022-10-21T22:01:11.114Z,86.89
2022-10-21T22:03:39.807Z,87.18
2022-10-21T22:06:08.347Z,88.26
2022-10-21T22:08:39.294Z,87.07
2022-10-21T22:11:09.320Z,86.35
2022-10-21T22:13:39.367Z,86.39
2022-10-21T22:16:08.398Z,86.69
2022-10-21T22:18:36.401Z,87.38
2022-10-21T22:21:05.482Z,88.49
2022-10-21T22:23:33.237Z,88.94
2022-10-21T22:26:01.294Z,89.32
2022-10-21T22:28:29.085Z,89.36
2022-10-21T22:31:00.714Z,90.05
2022-10-21T22:33:28.489Z,90.29
2022-10-21T22:35:56.253Z,91.35
2022-10-21T22:38:24.437Z,91.69
2022-10-21T22:40:54.243Z,91.47
2022-10-21T22:43:22.512Z,91.54
2022-10-21T22:45:50.129Z,91.35
2022-10-21T22:48:19.397Z,91.67
2022-10-21T22:50:47.094Z,91.53
2022-10-21T22:53:15.870Z,91.55
2022-10-21T22:55:43.460Z,91.01
2022-10-21T22:58:19.669Z,91.75
2022-10-21T23:00:47.674Z,91.04
2022-10-21T23:03:15.707Z,90.98
2022-10-21T23:05:44.938Z,90.93
2022-10-21T23:08:12.602Z,91.00
2022-10-21T23:10:40.273Z,91.52
2022-10-21T23:13:07.802Z,92.70
2022-10-21T23:15:36.146Z,91.08
2022-10-21T23:18:03.763Z,90.15
2022-10-21T23:20:31.688Z,89.91
2022-10-21T23:23:00.654Z,90.91
2022-10-21T23:25:28.597Z,89.84
2022-10-21T23:27:56.443Z,90.08
2022-10-21T23:30:23.997Z,89.85
2022-10-21T23:32:52.000Z,89.40
2022-10-21T23:35:20.627Z,88.83
2022-10-21T23:37:48.464Z,89.82
2022-10-21T23:40:17.534Z,89.11
2022-10-21T23:42:45.161Z,88.70
2022-10-21T23:45:13.379Z,88.21
2022-10-21T23:47:41.060Z,87.40
2022-10-21T23:50:10.216Z,84.97
2022-10-21T23:52:38.527Z,84.25
2022-10-21T23:55:07.107Z,85.14
2022-10-21T23:57:36.186Z,86.49
